首页
METAR-TAF:

METAR-TAF

机场 :

阿图罗·梅里诺·贝尼特斯准将国际机场

圣地亚哥-德智利, 智利

纬度: 33-23S, 经度: 070-47W, 海拔: 475米

当前天气观测

该预报发布于57分钟前的00:00 UTC
风速12节,风向南转南东
温度 10°C
湿度 76%
气压 1024 hPa
能见度10公里或以上
1500米以下无云,无积雨云

METAR: SCEL 210000Z 16012KT CAVOK 10/06 Q1024 NOSIG

时间: 20:57 (00:57 UTC)

预报

该预报发布于2小时和57分钟前的22:00 UTC
预报有效从21日的 00点(UTC)到 21日的 24点(UTC)
风速5节,风向南转西南
能見度: 8000
成为
从 21日的 00点(UTC)到 21日的 02点(UTC)
风速4节,风向南转南东
成为
从 21日的 06点(UTC)到 21日的 08点(UTC)
风速2节,风向多变
能見度: 5000
散云层高于1000英尺
轻雾
短暂存在
从 21日的 08点(UTC)到 21日的 12点(UTC)
能見度: 0800
多云层高于800英尺
碎片雾
成为
从 21日的 16点(UTC)到 21日的 18点(UTC)
风速8节,风向

TAF: SCEL 202200Z 2100/2124 21005KT 8000 NSC TX18/2119Z TN03/2111Z BECMG 2100/2102 15004KT BECMG 2106/2108 VRB02KT 5000 BR SCT010 TEMPO 2108/2112 0800 BCFG BKN008 BECMG 2116/2118 19008KT

超过4000个机场的气象观测和天气预报(METAR&TAF报告)。

可查询的气象台以黄色和红色小点在地图上表示。

将鼠标移到小点上方,可查看气象台名称。

然后点击查看天气观测和预报。

如需切换地图:点击带黑十字的绿色按钮放大地图;点击带横线的绿色按钮缩小地图;或者点击绿色箭头查看邻近地区的地图。


METAR-TAF: